Time;durP1;ratioP1;P1;durP2;ratioP2;P2;SDS_P1;SDS_P2;PMS_P1;PMS_P2;Temp;Humidity;BMP_temperature;BMP_pressure;BME280_temperature;BME280_humidity;BME280_pressure;Samples;Min_cycle;Max_cycle;Signal;HPM_P1;HPM_P2
2023/09/29 00:00:16;;;;;;;11.95;2.80;;;19.10;99.90;;;;;;5067575;28;20076;-58
2023/09/29 00:02:44;;;;;;;14.82;3.15;;;19.10;99.90;;;;;;5051611;28;20048;-58
2023/09/29 00:05:11;;;;;;;12.00;3.00;;;19.10;99.90;;;;;;5031169;28;20481;-58
2023/09/29 00:07:38;;;;;;;13.07;2.60;;;19.10;99.90;;;;;;5057304;28;20059;-58
2023/09/29 00:10:08;;;;;;;15.27;3.00;;;19.10;99.90;;;;;;5067247;28;20048;-58
2023/09/29 00:12:36;;;;;;;10.48;3.15;;;19.10;99.90;;;;;;5050882;28;20057;-58
2023/09/29 00:15:04;;;;;;;11.82;3.70;;;19.10;99.90;;;;;;5068190;28;20098;-58
2023/09/29 00:17:31;;;;;;;14.13;3.15;;;19.10;99.90;;;;;;5062479;28;20132;-60
2023/09/29 00:20:01;;;;;;;10.02;3.17;;;19.10;99.90;;;;;;5048738;28;20049;-58
2023/09/29 00:22:28;;;;;;;7.72;2.00;;;19.00;99.90;;;;;;4700384;28;10000011;-59
2023/09/29 00:24:55;;;;;;;14.30;3.17;;;19.00;99.90;;;;;;5057512;28;20051;-58
2023/09/29 00:27:21;;;;;;;13.85;3.03;;;19.00;99.90;;;;;;5062115;28;20052;-59
2023/09/29 00:29:48;;;;;;;16.75;3.95;;;19.10;99.90;;;;;;5049625;28;20073;-59
2023/09/29 00:32:15;;;;;;;10.63;3.45;;;19.10;99.90;;;;;;5051837;28;20512;-59
2023/09/29 00:34:42;;;;;;;7.57;2.15;;;19.10;99.90;;;;;;5063246;28;20143;-59
2023/09/29 00:37:09;;;;;;;11.38;2.67;;;19.10;99.90;;;;;;5062921;28;20140;-59
2023/09/29 00:39:36;;;;;;;9.27;2.63;;;19.10;99.90;;;;;;5060925;28;20214;-61
2023/09/29 00:42:06;;;;;;;15.73;2.72;;;19.10;99.90;;;;;;5064587;28;20055;-59
2023/09/29 00:44:33;;;;;;;12.18;2.10;;;19.00;99.90;;;;;;5059070;28;20051;-59
2023/09/29 00:47:01;;;;;;;10.23;2.95;;;19.00;99.90;;;;;;5063842;28;20106;-59
2023/09/29 00:49:29;;;;;;;8.38;3.35;;;18.90;99.90;;;;;;5041786;28;20052;-59
2023/09/29 00:51:59;;;;;;;9.52;2.65;;;18.90;99.90;;;;;;5049119;28;20098;-59
2023/09/29 00:54:31;;;;;;;13.20;2.75;;;18.80;99.90;;;;;;5056528;28;20037;-59
2023/09/29 00:56:59;;;;;;;9.82;3.03;;;18.80;99.90;;;;;;5049341;28;20051;-59
2023/09/29 00:59:26;;;;;;;9.75;3.70;;;18.70;99.90;;;;;;5041555;28;20051;-59
2023/09/29 01:01:53;;;;;;;17.02;4.10;;;18.60;99.90;;;;;;5030552;28;20049;-59
2023/09/29 01:04:20;;;;;;;10.35;2.95;;;18.60;99.90;;;;;;5060271;28;20099;-58
2023/09/29 01:06:49;;;;;;;11.65;3.10;;;18.60;99.90;;;;;;5030284;28;20045;-59
2023/09/29 01:09:16;;;;;;;9.63;2.30;;;18.60;99.90;;;;;;5053264;28;20095;-59
2023/09/29 01:11:43;;;;;;;9.50;3.30;;;18.60;99.90;;;;;;5068015;28;20457;-59
2023/09/29 01:14:14;;;;;;;7.63;2.58;;;18.60;99.90;;;;;;5055585;28;20717;-59
2023/09/29 01:16:41;;;;;;;9.40;2.78;;;18.60;99.90;;;;;;5067902;28;20148;-59
2023/09/29 01:19:11;;;;;;;10.98;2.50;;;18.60;99.90;;;;;;5057402;28;20492;-59
2023/09/29 01:21:44;;;;;;;6.28;1.83;;;18.60;99.90;;;;;;5066000;28;20040;-59
2023/09/29 01:24:11;;;;;;;9.23;2.50;;;18.70;99.90;;;;;;5055817;28;20051;-60
2023/09/29 01:26:38;;;;;;;10.23;2.35;;;18.70;99.90;;;;;;5064144;28;20040;-59
2023/09/29 01:29:05;;;;;;;10.65;2.85;;;18.70;99.90;;;;;;5060575;28;20270;-59
2023/09/29 01:31:34;;;;;;;9.95;2.85;;;18.70;99.90;;;;;;5062269;28;20051;-58
2023/09/29 01:34:04;;;;;;;9.70;2.65;;;18.70;99.90;;;;;;5058881;28;20118;-59
2023/09/29 01:36:31;;;;;;;12.15;2.47;;;18.70;99.90;;;;;;5047297;28;20053;-59
2023/09/29 01:38:58;;;;;;;11.07;2.15;;;18.80;99.90;;;;;;5051532;28;20094;-58
2023/09/29 01:41:25;;;;;;;12.48;3.78;;;18.80;99.90;;;;;;5024371;28;20072;-59
2023/09/29 01:43:52;;;;;;;8.82;2.97;;;18.80;99.90;;;;;;5063773;28;20049;-59
2023/09/29 01:46:19;;;;;;;10.13;3.30;;;18.90;99.90;;;;;;5060385;28;20044;-59
2023/09/29 01:48:46;;;;;;;7.22;2.13;;;18.90;99.90;;;;;;5052114;28;20085;-59
2023/09/29 01:51:13;;;;;;;7.97;2.47;;;18.90;99.90;;;;;;5054787;28;20047;-59
2023/09/29 01:53:40;;;;;;;5.82;2.33;;;18.90;99.90;;;;;;5055294;28;20041;-59
2023/09/29 01:56:07;;;;;;;7.32;2.13;;;19.00;99.90;;;;;;5059629;28;20041;-59
2023/09/29 01:58:34;;;;;;;10.95;3.50;;;19.00;99.90;;;;;;5043525;28;20124;-59
2023/09/29 02:01:00;;;;;;;7.57;2.70;;;19.00;99.90;;;;;;5038764;28;20045;-59
2023/09/29 02:03:27;;;;;;;14.02;3.55;;;19.00;99.90;;;;;;5070982;28;20566;-58
2023/09/29 02:05:57;;;;;;;11.35;2.78;;;19.00;99.90;;;;;;5058995;28;20045;-59
2023/09/29 02:08:25;;;;;;;8.68;2.97;;;19.00;99.90;;;;;;5070748;28;20056;-59
2023/09/29 02:10:52;;;;;;;8.60;3.17;;;19.00;99.90;;;;;;5066347;28;20054;-59
2023/09/29 02:13:20;;;;;;;11.85;2.15;;;19.00;99.90;;;;;;5052650;28;20055;-59
2023/09/29 02:15:47;;;;;;;6.18;1.88;;;18.90;99.90;;;;;;5055019;28;20056;-60
2023/09/29 02:18:13;;;;;;;7.78;1.88;;;18.90;99.90;;;;;;5066247;28;20534;-59
2023/09/29 02:20:46;;;;;;;6.35;2.13;;;18.90;99.90;;;;;;5066292;28;20041;-59
2023/09/29 02:23:14;;;;;;;5.05;1.67;;;18.90;99.90;;;;;;5055910;28;20056;-59
2023/09/29 02:25:41;;;;;;;5.95;1.88;;;18.90;99.90;;;;;;5036318;28;20107;-61
2023/09/29 02:28:11;;;;;;;4.40;1.70;;;18.90;99.90;;;;;;5062569;28;20079;-59
2023/09/29 02:30:38;;;;;;;4.72;1.52;;;18.90;99.90;;;;;;5067967;28;20098;-59
2023/09/29 02:33:06;;;;;;;6.22;1.75;;;18.90;99.90;;;;;;5058781;28;20060;-59
2023/09/29 02:35:33;;;;;;;4.43;1.70;;;18.80;99.90;;;;;;5033609;28;20047;-59
2023/09/29 02:38:00;;;;;;;4.68;2.10;;;18.90;99.90;;;;;;5061338;28;20094;-59
2023/09/29 02:40:28;;;;;;;5.60;1.88;;;18.90;99.90;;;;;;5050980;28;20041;-59
2023/09/29 02:42:55;;;;;;;6.15;1.83;;;18.80;99.90;;;;;;5063903;28;20048;-59
2023/09/29 02:45:24;;;;;;;3.88;1.25;;;18.80;99.90;;;;;;5056430;28;20048;-58
2023/09/29 02:47:52;;;;;;;5.95;1.52;;;18.90;99.90;;;;;;5039809;28;20052;-58
2023/09/29 02:50:19;;;;;;;2.28;1.10;;;18.90;99.90;;;;;;5069949;28;20052;-58
2023/09/29 02:52:46;;;;;;;4.78;1.65;;;18.90;99.90;;;;;;5039183;28;20055;-59
2023/09/29 02:55:14;;;;;;;3.45;1.63;;;18.90;99.90;;;;;;5070165;28;20414;-59
2023/09/29 02:57:43;;;;;;;5.00;1.70;;;18.90;99.90;;;;;;5064214;28;20322;-59
2023/09/29 03:00:26;;;;;;;6.65;1.58;;;18.90;99.90;;;;;;5029795;28;20069;-60
2023/09/29 03:02:53;;;;;;;4.97;1.40;;;18.90;99.90;;;;;;5047471;28;20044;-59
2023/09/29 03:05:21;;;;;;;4.00;1.55;;;18.80;99.90;;;;;;5070067;28;20045;-59
2023/09/29 03:07:49;;;;;;;2.92;1.10;;;18.80;99.90;;;;;;5047542;28;20048;-57
2023/09/29 03:10:20;;;;;;;3.10;1.75;;;18.70;99.90;;;;;;5033593;28;20049;-59
2023/09/29 03:12:48;;;;;;;3.50;0.98;;;18.70;99.90;;;;;;5053357;28;20049;-60
2023/09/29 03:15:15;;;;;;;3.72;1.27;;;18.70;99.90;;;;;;5066502;28;20131;-60
2023/09/29 03:17:44;;;;;;;3.30;1.25;;;18.70;99.90;;;;;;5065110;28;20079;-60
2023/09/29 03:20:11;;;;;;;3.90;1.35;;;18.60;99.90;;;;;;5059436;28;20047;-60
2023/09/29 03:22:43;;;;;;;3.10;1.20;;;18.60;99.90;;;;;;5056062;28;20045;-60
2023/09/29 03:25:10;;;;;;;2.28;1.48;;;18.60;99.90;;;;;;5061183;28;20056;-60
2023/09/29 03:27:38;;;;;;;2.72;1.20;;;18.60;99.90;;;;;;5065325;28;20389;-60
2023/09/29 03:30:07;;;;;;;6.28;1.70;;;18.60;99.90;;;;;;5060554;28;20044;-60
2023/09/29 03:32:34;;;;;;;2.88;1.00;;;18.60;99.90;;;;;;5064836;28;20059;-60
2023/09/29 03:35:01;;;;;;;4.03;0.80;;;18.60;99.90;;;;;;5047184;28;20220;-60
2023/09/29 03:37:27;;;;;;;2.38;0.85;;;18.60;99.90;;;;;;5066753;28;20109;-60
2023/09/29 03:39:55;;;;;;;1.60;0.80;;;18.60;99.90;;;;;;5060602;28;20064;-60
2023/09/29 03:42:22;;;;;;;2.58;0.80;;;18.60;99.90;;;;;;5049157;28;20463;-60
2023/09/29 03:44:49;;;;;;;1.23;0.60;;;18.70;99.90;;;;;;5057113;28;20498;-60
2023/09/29 03:47:16;;;;;;;1.10;0.70;;;18.70;99.90;;;;;;5069049;28;20056;-60
2023/09/29 03:49:43;;;;;;;1.83;0.50;;;18.70;99.90;;;;;;5062321;28;20372;-60
2023/09/29 03:52:10;;;;;;;7.50;0.77;;;18.60;99.90;;;;;;5048190;28;20049;-60
2023/09/29 03:54:36;;;;;;;0.90;0.32;;;18.40;99.90;;;;;;5052603;28;20052;-59
2023/09/29 03:57:10;;;;;;;0.13;0.13;;;18.10;99.90;;;;;;5068943;28;20048;-60
2023/09/29 03:59:37;;;;;;;;;;;18.00;99.90;;;;;;5057413;28;20419;-61
2023/09/29 04:02:04;;;;;;;0.45;0.20;;;17.80;99.90;;;;;;5053281;28;19927;-60
2023/09/29 04:04:32;;;;;;;0.20;0.20;;;17.70;99.90;;;;;;5057732;28;20060;-60
2023/09/29 04:06:59;;;;;;;0.38;0.30;;;17.70;99.90;;;;;;5047589;28;20122;-60
2023/09/29 04:09:25;;;;;;;0.70;0.40;;;17.60;99.90;;;;;;5051825;28;20549;-60
2023/09/29 04:11:52;;;;;;;0.95;0.25;;;17.60;99.90;;;;;;5056111;28;20048;-57
2023/09/29 04:14:19;;;;;;;0.90;0.50;;;17.50;99.90;;;;;;5048127;28;20364;-60
2023/09/29 04:16:59;;;;;;;0.65;0.17;;;17.40;99.90;;;;;;5046567;28;20048;-59
2023/09/29 04:19:26;;;;;;;0.75;0.20;;;17.40;99.90;;;;;;5063118;28;20048;-59
2023/09/29 04:21:53;;;;;;;0.55;0.35;;;17.30;99.90;;;;;;5056478;28;20048;-60
2023/09/29 04:24:19;;;;;;;1.88;0.22;;;17.20;99.90;;;;;;5052225;28;20044;-58
2023/09/29 04:26:46;;;;;;;1.23;0.30;;;17.20;99.90;;;;;;5056916;28;20052;-62
2023/09/29 04:29:13;;;;;;;1.40;0.63;;;17.10;99.90;;;;;;5066161;28;20045;-59
2023/09/29 04:31:40;;;;;;;0.80;0.43;;;17.10;99.90;;;;;;5057221;28;20056;-59
2023/09/29 04:34:06;;;;;;;0.25;0.20;;;17.10;99.90;;;;;;5067093;28;20334;-59
2023/09/29 04:36:33;;;;;;;1.10;0.35;;;17.10;99.90;;;;;;5057381;28;20093;-59
2023/09/29 04:39:01;;;;;;;0.63;0.40;;;17.00;99.90;;;;;;5068653;28;20045;-59
2023/09/29 04:41:29;;;;;;;0.38;0.20;;;17.00;99.90;;;;;;5060564;28;20057;-58
2023/09/29 04:43:56;;;;;;;0.40;0.30;;;17.10;99.90;;;;;;5030606;28;20131;-58
2023/09/29 04:46:23;;;;;;;0.55;0.30;;;17.00;99.90;;;;;;5052169;28;20045;-59
2023/09/29 04:48:53;;;;;;;0.70;0.40;;;17.00;99.90;;;;;;5067797;28;20044;-58
2023/09/29 04:51:20;;;;;;;0.57;0.50;;;16.90;99.90;;;;;;5063029;28;20503;-58
2023/09/29 04:53:47;;;;;;;2.83;0.45;;;16.90;99.90;;;;;;5049156;28;20048;-59
2023/09/29 04:56:14;;;;;;;0.40;0.40;;;16.90;99.90;;;;;;5033936;28;20049;-58
2023/09/29 04:58:41;;;;;;;1.55;0.50;;;16.80;99.90;;;;;;5046273;28;20090;-59
2023/09/29 05:01:07;;;;;;;1.02;0.60;;;16.90;99.90;;;;;;5062708;28;20044;-60
2023/09/29 05:03:34;;;;;;;0.80;0.47;;;16.80;99.90;;;;;;5050420;28;20115;-60
2023/09/29 05:06:01;;;;;;;1.40;0.50;;;16.80;99.90;;;;;;5052860;28;20099;-59
2023/09/29 05:08:28;;;;;;;1.45;0.80;;;16.80;99.90;;;;;;5053744;28;20139;-59
2023/09/29 05:10:55;;;;;;;1.73;0.70;;;16.80;99.90;;;;;;5063118;28;20111;-61
2023/09/29 05:13:22;;;;;;;2.63;0.80;;;16.80;99.90;;;;;;5048935;28;20072;-60
2023/09/29 05:15:48;;;;;;;2.08;0.60;;;16.80;99.90;;;;;;5049713;28;20041;-59
2023/09/29 05:18:15;;;;;;;2.58;0.70;;;16.80;99.90;;;;;;5056393;28;20044;-59
2023/09/29 05:20:45;;;;;;;2.25;0.82;;;16.70;99.90;;;;;;5066905;28;20077;-59
2023/09/29 05:23:12;;;;;;;1.85;0.80;;;16.80;99.90;;;;;;5048171;28;20053;-59
2023/09/29 05:25:43;;;;;;;1.63;0.77;;;16.80;99.90;;;;;;5051572;28;20041;-60
2023/09/29 05:28:10;;;;;;;5.72;1.35;;;16.80;99.90;;;;;;5031816;28;20049;-60
2023/09/29 05:30:37;;;;;;;3.38;1.33;;;16.80;99.90;;;;;;5067155;28;20106;-60
2023/09/29 05:33:04;;;;;;;2.00;0.90;;;16.80;99.90;;;;;;5057215;28;20048;-59
2023/09/29 05:35:31;;;;;;;1.40;0.70;;;16.70;99.90;;;;;;5053856;28;20135;-59
2023/09/29 05:37:58;;;;;;;4.32;1.05;;;16.70;99.90;;;;;;5041066;28;20061;-59
2023/09/29 05:40:25;;;;;;;2.47;1.30;;;16.70;99.90;;;;;;5070450;28;20407;-59
2023/09/29 05:42:51;;;;;;;1.17;0.80;;;16.70;99.90;;;;;;5057939;28;20121;-58
2023/09/29 05:45:20;;;;;;;1.45;0.73;;;16.70;99.90;;;;;;5052129;28;20128;-59
2023/09/29 05:47:49;;;;;;;3.78;0.90;;;16.70;99.90;;;;;;5051291;28;20449;-59
2023/09/29 05:50:16;;;;;;;4.18;2.05;;;16.60;99.90;;;;;;5049677;28;20136;-58
2023/09/29 05:52:46;;;;;;;2.15;0.90;;;16.70;99.90;;;;;;5051184;28;20075;-59
2023/09/29 05:55:33;;;;;;;2.80;0.80;;;16.70;99.90;;;;;;5041357;28;20132;-59
2023/09/29 05:58:00;;;;;;;1.83;0.90;;;16.70;99.90;;;;;;5034096;28;20049;-59
2023/09/29 06:00:27;;;;;;;4.30;1.30;;;16.70;99.90;;;;;;5040104;28;20123;-59
2023/09/29 06:02:54;;;;;;;1.83;1.25;;;16.80;99.90;;;;;;5050955;28;20045;-59
2023/09/29 06:05:21;;;;;;;1.90;0.95;;;16.80;99.90;;;;;;5051422;28;20496;-59
2023/09/29 06:07:48;;;;;;;1.95;1.05;;;16.70;99.90;;;;;;5054441;28;20052;-59
2023/09/29 06:10:15;;;;;;;2.33;0.93;;;16.70;99.90;;;;;;5044745;28;20052;-60
2023/09/29 06:12:42;;;;;;;2.28;1.00;;;16.70;99.90;;;;;;5041197;28;20040;-59
2023/09/29 06:15:11;;;;;;;1.58;0.90;;;16.70;99.90;;;;;;5058324;28;20042;-59
2023/09/29 06:17:39;;;;;;;2.17;1.30;;;16.70;99.90;;;;;;5043056;28;20052;-58
2023/09/29 06:20:07;;;;;;;2.05;0.70;;;16.70;99.90;;;;;;5049289;28;20507;-59
2023/09/29 06:22:36;;;;;;;3.55;1.52;;;16.70;99.90;;;;;;5030338;28;20145;-59
2023/09/29 06:25:03;;;;;;;2.17;1.30;;;16.70;99.90;;;;;;5055921;28;20046;-59
2023/09/29 06:27:30;;;;;;;2.83;1.00;;;16.60;99.90;;;;;;5042341;28;20253;-59
2023/09/29 06:29:57;;;;;;;1.45;0.93;;;16.60;99.90;;;;;;5059036;28;20125;-59
2023/09/29 06:32:24;;;;;;;1.92;1.10;;;16.60;99.90;;;;;;5035729;28;20132;-57
2023/09/29 06:34:50;;;;;;;2.47;1.05;;;16.60;99.90;;;;;;5052840;28;20480;-59
2023/09/29 06:37:18;;;;;;;2.83;1.00;;;16.60;99.90;;;;;;5051751;28;20108;-60
2023/09/29 06:39:45;;;;;;;3.38;1.27;;;16.60;99.90;;;;;;5051706;28;20048;-59
2023/09/29 06:42:12;;;;;;;9.55;1.52;;;16.60;99.90;;;;;;5051083;28;20049;-58
2023/09/29 06:44:39;;;;;;;3.08;1.75;;;16.60;99.90;;;;;;5048164;28;20044;-59
2023/09/29 06:47:06;;;;;;;5.05;1.42;;;16.50;99.90;;;;;;5050515;28;20055;-59
2023/09/29 06:49:33;;;;;;;2.63;1.10;;;16.50;99.90;;;;;;5052745;28;20044;-58
2023/09/29 06:52:00;;;;;;;2.17;1.17;;;16.50;99.90;;;;;;5061202;28;20041;-60
2023/09/29 06:54:27;;;;;;;1.98;1.05;;;16.40;99.90;;;;;;5057975;28;20475;-60
2023/09/29 06:56:54;;;;;;;2.22;1.00;;;16.40;99.90;;;;;;5052096;28;20084;-60
2023/09/29 06:59:21;;;;;;;4.63;1.50;;;16.40;99.90;;;;;;5043991;28;20128;-58
2023/09/29 07:01:48;;;;;;;2.85;1.17;;;16.30;99.90;;;;;;5050713;28;20053;-60
2023/09/29 07:04:15;;;;;;;3.47;1.45;;;16.30;99.90;;;;;;5057349;28;20045;-61
2023/09/29 07:06:42;;;;;;;5.38;1.33;;;16.30;99.90;;;;;;5056086;28;20045;-60
2023/09/29 07:09:09;;;;;;;3.33;1.08;;;16.40;99.90;;;;;;5062451;28;20514;-60
2023/09/29 07:11:40;;;;;;;4.57;1.42;;;16.40;99.90;;;;;;5053026;28;20066;-60
2023/09/29 07:14:07;;;;;;;2.22;1.20;;;16.30;99.90;;;;;;5069420;28;20052;-58
2023/09/29 07:16:33;;;;;;;1.95;1.02;;;16.30;99.90;;;;;;5043538;28;20073;-59
2023/09/29 07:19:01;;;;;;;2.70;1.20;;;16.30;99.90;;;;;;5048935;28;20045;-57
2023/09/29 07:21:28;;;;;;;2.80;0.95;;;16.30;99.90;;;;;;5052088;28;20137;-59
2023/09/29 07:23:56;;;;;;;4.35;1.17;;;16.30;99.90;;;;;;5070725;28;20351;-59
2023/09/29 07:26:23;;;;;;;5.68;1.35;;;16.20;99.90;;;;;;5059410;28;20041;-59
2023/09/29 07:28:50;;;;;;;5.68;1.40;;;16.40;99.90;;;;;;5033664;28;20540;-59
2023/09/29 07:31:17;;;;;;;4.53;1.33;;;16.30;99.90;;;;;;5039475;28;20041;-59
2023/09/29 07:33:44;;;;;;;1.88;1.13;;;16.40;99.90;;;;;;5042353;28;20103;-59
2023/09/29 07:36:11;;;;;;;2.88;1.33;;;16.40;99.90;;;;;;5020016;28;20045;-59
2023/09/29 07:38:38;;;;;;;5.30;1.10;;;16.50;99.90;;;;;;5061906;28;20049;-61
2023/09/29 07:41:05;;;;;;;3.67;1.10;;;16.50;99.90;;;;;;5064583;28;20129;-62
2023/09/29 07:43:32;;;;;;;2.53;0.98;;;16.50;99.90;;;;;;5029674;28;20075;-59
2023/09/29 07:45:59;;;;;;;3.03;1.30;;;16.50;99.90;;;;;;5045645;28;20048;-60
2023/09/29 07:48:27;;;;;;;1.95;1.10;;;16.40;99.90;;;;;;5037885;28;20041;-59
2023/09/29 07:50:54;;;;;;;4.90;1.45;;;16.40;99.90;;;;;;5049687;28;20041;-59
2023/09/29 07:53:21;;;;;;;3.28;1.02;;;16.50;99.90;;;;;;5039053;28;20041;-60
2023/09/29 07:55:47;;;;;;;5.45;1.40;;;16.50;99.90;;;;;;5067402;28;20494;-58
2023/09/29 07:58:14;;;;;;;7.32;1.00;;;16.60;99.90;;;;;;5054947;28;20052;-59
2023/09/29 08:00:42;;;;;;;3.63;0.57;;;16.50;99.90;;;;;;5067684;28;20102;-59
2023/09/29 08:03:09;;;;;;;3.15;1.00;;;16.50;99.90;;;;;;5061027;28;20048;-59
2023/09/29 08:05:36;;;;;;;2.15;0.90;;;16.60;99.90;;;;;;5048213;28;20063;-60
2023/09/29 08:08:05;;;;;;;2.15;0.98;;;16.60;99.90;;;;;;5051817;28;20048;-59
2023/09/29 08:10:32;;;;;;;2.45;0.75;;;16.50;99.90;;;;;;5028268;28;20551;-58
2023/09/29 08:12:58;;;;;;;1.40;0.70;;;16.50;99.90;;;;;;5048648;28;20048;-59
2023/09/29 08:15:25;;;;;;;1.38;0.52;;;16.50;99.90;;;;;;5034907;28;20041;-60
2023/09/29 08:17:52;;;;;;;2.03;0.60;;;16.60;99.90;;;;;;5034438;28;20049;-60
2023/09/29 08:20:20;;;;;;;5.50;1.33;;;16.60;99.90;;;;;;5063633;28;20048;-59
2023/09/29 08:22:47;;;;;;;3.25;1.05;;;16.60;99.90;;;;;;5062811;28;20074;-58
2023/09/29 08:25:17;;;;;;;4.28;1.17;;;16.50;99.90;;;;;;5036352;28;20087;-58
2023/09/29 08:27:44;;;;;;;4.78;0.90;;;16.60;99.90;;;;;;5051137;28;20534;-59
2023/09/29 08:30:11;;;;;;;6.68;1.40;;;16.70;99.90;;;;;;5056175;28;20045;-59
2023/09/29 08:32:39;;;;;;;1.88;0.90;;;16.80;99.90;;;;;;5050705;28;20101;-59
2023/09/29 08:35:06;;;;;;;1.92;0.52;;;16.80;99.90;;;;;;5057621;28;20135;-59
2023/09/29 08:37:33;;;;;;;7.45;1.05;;;16.80;99.90;;;;;;5064443;28;20078;-60
2023/09/29 08:40:00;;;;;;;7.30;1.52;;;16.80;99.90;;;;;;5041324;28;20077;-57
2023/09/29 08:42:37;;;;;;;4.32;0.80;;;16.80;99.90;;;;;;5039494;28;20128;-59
2023/09/29 08:45:08;;;;;;;2.28;1.08;;;16.80;99.90;;;;;;5056816;28;20052;-59
2023/09/29 08:47:40;;;;;;;6.55;1.05;;;16.90;99.90;;;;;;5047854;28;20442;-59
2023/09/29 08:50:16;;;;;;;3.10;0.90;;;17.00;99.90;;;;;;5037862;28;20457;-59
2023/09/29 08:52:44;;;;;;;4.65;0.82;;;17.00;99.90;;;;;;5047750;28;20073;-59
2023/09/29 08:55:12;;;;;;;2.25;0.93;;;17.00;99.90;;;;;;5056225;28;20056;-59
2023/09/29 08:57:43;;;;;;;4.38;1.10;;;17.10;99.90;;;;;;5071133;28;20106;-60
2023/09/29 09:00:12;;;;;;;3.83;1.50;;;17.10;99.90;;;;;;5046327;28;20045;-60
2023/09/29 09:02:46;;;;;;;5.32;1.45;;;17.00;99.90;;;;;;5051250;28;20527;-59
2023/09/29 09:05:14;;;;;;;2.10;1.13;;;17.10;99.90;;;;;;5057877;28;20040;-63
2023/09/29 09:07:41;;;;;;;2.10;1.20;;;16.90;99.90;;;;;;5071859;28;20052;-60
2023/09/29 09:10:09;;;;;;;3.42;1.20;;;17.20;99.90;;;;;;5045836;28;20420;-60
2023/09/29 09:12:52;;;;;;;;;;;17.40;99.90;;;;;;5053174;28;20511;-60
2023/09/29 09:15:23;;;;;;;1.42;0.95;;;17.40;99.90;;;;;;5055307;28;19964;-60
2023/09/29 09:17:50;;;;;;;2.47;1.38;;;17.50;99.90;;;;;;5071613;28;20415;-60
2023/09/29 09:20:18;;;;;;;7.28;1.40;;;17.30;99.90;;;;;;5066713;28;20139;-62
2023/09/29 09:22:58;;;;;;;3.10;0.95;;;17.30;99.90;;;;;;5052275;28;20056;-59
2023/09/29 09:25:41;;;;;;;2.60;1.10;;;17.10;99.90;;;;;;5061547;28;20040;-59
2023/09/29 09:28:14;;;;;;;2.53;1.00;;;17.10;99.90;;;;;;5031674;28;20404;-59
2023/09/29 09:30:42;;;;;;;3.47;1.48;;;17.20;99.90;;;;;;5048015;28;20045;-60
2023/09/29 09:33:21;;;;;;;7.47;1.15;;;17.30;99.90;;;;;;5066858;28;20063;-59
2023/09/29 09:35:49;;;;;;;4.35;1.52;;;17.40;99.90;;;;;;5054897;28;20037;-59
2023/09/29 09:38:16;;;;;;;2.88;1.23;;;17.40;99.90;;;;;;5069773;28;20061;-59
2023/09/29 09:40:45;;;;;;;7.60;1.30;;;17.30;99.90;;;;;;5059219;28;20045;-59
2023/09/29 09:43:14;;;;;;;2.72;1.00;;;17.30;99.90;;;;;;5025121;28;20045;-60
2023/09/29 09:45:42;;;;;;;3.42;1.48;;;17.40;99.90;;;;;;5045992;28;20053;-60
2023/09/29 09:48:10;;;;;;;6.93;1.42;;;17.60;99.90;;;;;;5066296;28;20052;-60
2023/09/29 09:50:41;;;;;;;7.53;1.67;;;17.60;99.90;;;;;;5062983;28;20061;-60
2023/09/29 09:53:09;;;;;;;4.75;1.40;;;17.60;99.90;;;;;;5058025;28;20071;-60
2023/09/29 09:55:40;;;;;;;3.88;1.50;;;17.50;99.90;;;;;;5054999;28;20197;-59
2023/09/29 09:58:09;;;;;;;3.63;1.55;;;17.50;99.90;;;;;;5064121;28;20553;-60
2023/09/29 10:00:39;;;;;;;7.10;1.85;;;17.70;99.90;;;;;;5068252;28;20059;-59
2023/09/29 10:03:11;;;;;;;4.50;1.98;;;17.70;99.90;;;;;;5061459;28;20074;-62
2023/09/29 10:05:46;;;;;;;4.53;1.63;;;17.70;99.90;;;;;;5053861;28;20156;-60
2023/09/29 10:08:32;;;;;;;4.85;1.73;;;17.60;99.90;;;;;;5032944;28;20178;-59
2023/09/29 10:11:14;;;;;;;3.55;1.08;;;17.60;99.90;;;;;;5057367;28;20411;-59
2023/09/29 10:13:44;;;;;;;3.33;1.35;;;17.50;99.90;;;;;;5062746;28;20562;-59
2023/09/29 10:16:29;;;;;;;5.43;1.95;;;17.50;99.90;;;;;;5043209;28;20049;-59
2023/09/29 10:19:00;;;;;;;3.53;1.55;;;17.50;99.90;;;;;;5050310;28;20419;-58
2023/09/29 10:21:33;;;;;;;3.40;1.48;;;17.60;99.90;;;;;;5036014;28;20049;-59
2023/09/29 10:24:05;;;;;;;;;;;17.70;99.90;;;;;;5063148;28;20403;-58
2023/09/29 10:26:47;;;;;;;6.28;2.30;;;17.80;99.90;;;;;;5065697;28;19943;-58
2023/09/29 10:29:30;;;;;;;4.15;1.58;;;17.70;99.90;;;;;;5057743;28;20135;-58
2023/09/29 10:32:13;;;;;;;3.83;1.77;;;17.70;99.90;;;;;;5053758;28;20053;-59
2023/09/29 10:34:41;;;;;;;8.38;2.17;;;17.80;99.90;;;;;;5064867;28;20494;-59
2023/09/29 10:37:09;;;;;;;6.70;1.95;;;17.90;99.90;;;;;;5065582;28;20044;-58
2023/09/29 10:39:36;;;;;;;4.40;1.85;;;17.90;99.90;;;;;;5056197;28;20052;-58
2023/09/29 10:42:12;;;;;;;7.18;2.28;;;17.90;99.90;;;;;;5052727;28;20566;-59
2023/09/29 10:44:57;;;;;;;4.93;2.35;;;17.90;99.90;;;;;;5059955;28;20083;-59
2023/09/29 10:47:32;;;;;;;6.55;1.90;;;18.00;99.90;;;;;;5034713;28;20040;-59
2023/09/29 10:50:03;;;;;;;6.72;2.58;;;18.00;99.90;;;;;;5037179;28;20082;-58
2023/09/29 10:52:30;;;;;;;5.25;2.28;;;18.00;99.90;;;;;;5065250;28;20076;-59
2023/09/29 10:54:59;;;;;;;7.47;2.78;;;18.00;99.90;;;;;;5061178;28;20056;-57
2023/09/29 10:57:28;;;;;;;6.53;2.15;;;18.10;99.90;;;;;;5066965;28;20051;-59
2023/09/29 10:59:59;;;;;;;9.63;3.17;;;18.30;99.90;;;;;;5059513;28;20052;-58
2023/09/29 11:02:30;;;;;;;8.93;2.78;;;18.10;99.90;;;;;;5049188;28;20056;-58
2023/09/29 11:04:59;;;;;;;8.32;2.70;;;18.00;99.90;;;;;;5048398;28;20423;-59
2023/09/29 11:07:29;;;;;;;7.88;3.08;;;18.00;99.90;;;;;;5067662;28;20053;-59
2023/09/29 11:09:59;;;;;;;6.68;2.15;;;18.10;99.90;;;;;;5050853;28;20060;-59
2023/09/29 11:12:28;;;;;;;7.15;2.33;;;18.10;99.90;;;;;;5032130;28;20081;-59
2023/09/29 11:15:07;;;;;;;6.03;2.35;;;18.10;99.90;;;;;;5056847;28;20520;-59
2023/09/29 11:18:01;;;;;;;8.40;2.95;;;18.10;99.90;;;;;;5048904;28;20059;-59
2023/09/29 11:20:30;;;;;;;6.63;2.38;;;18.20;99.90;;;;;;5044599;28;20491;-60
2023/09/29 11:23:11;;;;;;;7.65;2.75;;;18.30;99.90;;;;;;5049567;28;20396;-60
2023/09/29 11:25:48;;;;;;;9.90;2.83;;;18.30;99.90;;;;;;5051961;28;20063;-60
2023/09/29 11:28:16;;;;;;;10.88;2.45;;;18.40;99.90;;;;;;5043933;28;20095;-58
2023/09/29 11:30:44;;;;;;;9.60;2.67;;;18.50;99.90;;;;;;5040000;28;20041;-59
2023/09/29 11:33:11;;;;;;;7.05;2.38;;;18.60;99.90;;;;;;5029207;28;20050;-59
2023/09/29 11:35:38;;;;;;;6.72;1.85;;;18.50;99.90;;;;;;5037406;28;20551;-59
2023/09/29 11:38:08;;;;;;;7.10;3.22;;;18.50;99.90;;;;;;5048172;28;20049;-60
2023/09/29 11:40:38;;;;;;;11.40;2.42;;;18.60;99.90;;;;;;5036425;28;20049;-59
2023/09/29 11:43:05;;;;;;;8.93;2.80;;;18.60;99.90;;;;;;5048027;28;20420;-59
2023/09/29 11:45:31;;;;;;;14.27;3.25;;;18.60;99.90;;;;;;5041784;28;20048;-57
2023/09/29 11:47:58;;;;;;;15.75;4.10;;;18.50;99.90;;;;;;5029005;28;20057;-58
2023/09/29 11:50:25;;;;;;;12.45;3.25;;;18.50;99.90;;;;;;5040680;28;20049;-58
2023/09/29 11:52:52;;;;;;;17.85;3.65;;;18.50;99.90;;;;;;5028706;28;20148;-59
2023/09/29 11:55:19;;;;;;;10.65;3.40;;;18.70;99.90;;;;;;5037846;28;20045;-59
2023/09/29 11:57:46;;;;;;;7.68;2.67;;;18.80;99.90;;;;;;5029417;28;20315;-59
2023/09/29 12:00:14;;;;;;;10.20;2.92;;;18.80;99.90;;;;;;5035579;28;20154;-59
2023/09/29 12:02:41;;;;;;;12.50;3.20;;;18.90;99.90;;;;;;5032532;28;20046;-59
2023/09/29 12:05:09;;;;;;;10.30;3.70;;;19.00;99.90;;;;;;5032400;28;20049;-59
2023/09/29 12:07:36;;;;;;;10.68;2.88;;;19.10;99.90;;;;;;5041588;28;20041;-58
2023/09/29 12:10:03;;;;;;;13.30;4.00;;;18.90;99.90;;;;;;5041472;28;20385;-58
2023/09/29 12:12:32;;;;;;;12.40;4.05;;;18.90;99.90;;;;;;5039149;28;20053;-59
2023/09/29 12:14:59;;;;;;;15.80;4.05;;;18.70;99.90;;;;;;5042092;28;20489;-58
2023/09/29 12:17:26;;;;;;;11.50;2.95;;;18.80;99.90;;;;;;5028325;28;20066;-59
2023/09/29 12:19:53;;;;;;;8.60;3.15;;;18.90;99.90;;;;;;5019906;28;20052;-59
2023/09/29 12:22:20;;;;;;;8.55;2.85;;;19.10;99.90;;;;;;5037476;28;20045;-58
2023/09/29 12:24:48;;;;;;;10.77;3.13;;;19.10;99.90;;;;;;5028303;28;20103;-58
2023/09/29 12:27:14;;;;;;;12.25;2.60;;;19.00;99.90;;;;;;5041935;28;20352;-60
2023/09/29 12:29:41;;;;;;;9.85;3.55;;;19.00;99.90;;;;;;5066485;28;20048;-59
2023/09/29 12:32:09;;;;;;;10.88;3.30;;;19.10;99.90;;;;;;5060700;28;20083;-59
2023/09/29 12:34:36;;;;;;;7.47;3.08;;;19.20;99.90;;;;;;5048132;28;20134;-59
2023/09/29 12:37:04;;;;;;;11.43;3.85;;;19.40;99.90;;;;;;5060131;28;20078;-60
2023/09/29 12:39:31;;;;;;;10.73;3.05;;;19.30;99.90;;;;;;5047420;28;20041;-59
2023/09/29 12:41:58;;;;;;;6.53;1.85;;;19.40;99.90;;;;;;5034111;28;20519;-58
2023/09/29 12:44:25;;;;;;;12.13;2.83;;;19.50;99.90;;;;;;5069038;28;20040;-59
2023/09/29 12:46:52;;;;;;;11.85;3.15;;;19.60;99.90;;;;;;5060567;28;20045;-59
2023/09/29 12:49:23;;;;;;;10.30;3.13;;;19.50;99.90;;;;;;5064506;28;20076;-60
2023/09/29 12:51:49;;;;;;;17.02;3.78;;;19.40;99.90;;;;;;5045199;28;20040;-59